sensor_id;sensor_type;location;lat;lon;timestamp;temperature;humidity
39401;SHT31;75540;50.000;7.360;2024-03-08T00:00:33;2.38;77.38
39401;SHT31;75540;50.000;7.360;2024-03-08T00:03:01;2.36;77.81
39401;SHT31;75540;50.000;7.360;2024-03-08T00:05:30;2.29;78.04
39401;SHT31;75540;50.000;7.360;2024-03-08T00:07:58;2.27;78.07
39401;SHT31;75540;50.000;7.360;2024-03-08T00:10:27;2.30;77.68
39401;SHT31;75540;50.000;7.360;2024-03-08T00:12:56;2.32;77.41
39401;SHT31;75540;50.000;7.360;2024-03-08T00:15:27;2.29;77.82
39401;SHT31;75540;50.000;7.360;2024-03-08T00:17:56;2.32;77.70
39401;SHT31;75540;50.000;7.360;2024-03-08T00:20:25;2.26;77.74
39401;SHT31;75540;50.000;7.360;2024-03-08T00:22:53;2.24;78.14
39401;SHT31;75540;50.000;7.360;2024-03-08T00:25:25;2.17;78.07
39401;SHT31;75540;50.000;7.360;2024-03-08T00:27:53;2.19;78.09
39401;SHT31;75540;50.000;7.360;2024-03-08T00:30:23;2.13;78.35
39401;SHT31;75540;50.000;7.360;2024-03-08T00:32:53;2.07;78.59
39401;SHT31;75540;50.000;7.360;2024-03-08T00:35:22;2.13;78.18
39401;SHT31;75540;50.000;7.360;2024-03-08T00:37:51;2.09;78.40
39401;SHT31;75540;50.000;7.360;2024-03-08T00:40:19;2.06;78.53
39401;SHT31;75540;50.000;7.360;2024-03-08T00:42:49;1.96;78.90
39401;SHT31;75540;50.000;7.360;2024-03-08T00:45:17;1.93;79.09
39401;SHT31;75540;50.000;7.360;2024-03-08T00:47:46;1.92;79.16
39401;SHT31;75540;50.000;7.360;2024-03-08T00:50:16;1.89;79.25
39401;SHT31;75540;50.000;7.360;2024-03-08T00:52:44;1.80;79.52
39401;SHT31;75540;50.000;7.360;2024-03-08T00:55:13;1.82;79.55
39401;SHT31;75540;50.000;7.360;2024-03-08T00:57:42;1.75;79.82
39401;SHT31;75540;50.000;7.360;2024-03-08T01:00:11;1.70;79.88
39401;SHT31;75540;50.000;7.360;2024-03-08T01:02:40;1.73;79.71
39401;SHT31;75540;50.000;7.360;2024-03-08T01:05:08;1.66;80.17
39401;SHT31;75540;50.000;7.360;2024-03-08T01:07:38;1.66;80.14
39401;SHT31;75540;50.000;7.360;2024-03-08T01:10:07;1.62;80.31
39401;SHT31;75540;50.000;7.360;2024-03-08T01:12:37;1.59;80.20
39401;SHT31;75540;50.000;7.360;2024-03-08T01:15:06;1.62;80.16
39401;SHT31;75540;50.000;7.360;2024-03-08T01:17:35;1.58;80.31
39401;SHT31;75540;50.000;7.360;2024-03-08T01:20:05;1.58;80.27
39401;SHT31;75540;50.000;7.360;2024-03-08T01:22:34;1.54;80.32
39401;SHT31;75540;50.000;7.360;2024-03-08T01:25:04;1.56;80.33
39401;SHT31;75540;50.000;7.360;2024-03-08T01:27:33;1.55;80.38
39401;SHT31;75540;50.000;7.360;2024-03-08T01:30:02;1.49;80.42
39401;SHT31;75540;50.000;7.360;2024-03-08T01:32:31;1.47;80.48
39401;SHT31;75540;50.000;7.360;2024-03-08T01:35:00;1.44;80.74
39401;SHT31;75540;50.000;7.360;2024-03-08T01:37:30;1.42;80.74
39401;SHT31;75540;50.000;7.360;2024-03-08T01:39:58;1.38;80.66
39401;SHT31;75540;50.000;7.360;2024-03-08T01:42:28;1.39;80.66
39401;SHT31;75540;50.000;7.360;2024-03-08T01:44:56;1.39;80.49
39401;SHT31;75540;50.000;7.360;2024-03-08T01:47:25;1.37;80.59
39401;SHT31;75540;50.000;7.360;2024-03-08T01:49:53;1.37;80.52
39401;SHT31;75540;50.000;7.360;2024-03-08T01:52:22;1.34;80.53
39401;SHT31;75540;50.000;7.360;2024-03-08T01:54:52;1.37;80.12
39401;SHT31;75540;50.000;7.360;2024-03-08T01:57:20;1.31;80.51
39401;SHT31;75540;50.000;7.360;2024-03-08T01:59:51;1.34;80.17
39401;SHT31;75540;50.000;7.360;2024-03-08T02:02:21;1.30;80.52
39401;SHT31;75540;50.000;7.360;2024-03-08T02:04:50;1.21;80.78
39401;SHT31;75540;50.000;7.360;2024-03-08T02:07:20;1.25;80.60
39401;SHT31;75540;50.000;7.360;2024-03-08T02:09:49;1.20;80.73
39401;SHT31;75540;50.000;7.360;2024-03-08T02:12:18;1.16;80.86
39401;SHT31;75540;50.000;7.360;2024-03-08T02:14:48;1.24;80.44
39401;SHT31;75540;50.000;7.360;2024-03-08T02:17:17;1.16;80.77
39401;SHT31;75540;50.000;7.360;2024-03-08T02:19:46;1.17;80.36
39401;SHT31;75540;50.000;7.360;2024-03-08T02:22:16;1.18;80.64
39401;SHT31;75540;50.000;7.360;2024-03-08T02:24:45;1.09;80.71
39401;SHT31;75540;50.000;7.360;2024-03-08T02:27:13;1.09;80.71
39401;SHT31;75540;50.000;7.360;2024-03-08T02:29:42;1.09;80.68
39401;SHT31;75540;50.000;7.360;2024-03-08T02:32:11;1.07;80.78
39401;SHT31;75540;50.000;7.360;2024-03-08T02:34:40;1.07;80.80
39401;SHT31;75540;50.000;7.360;2024-03-08T02:37:08;0.98;80.97
39401;SHT31;75540;50.000;7.360;2024-03-08T02:39:38;1.04;80.98
39401;SHT31;75540;50.000;7.360;2024-03-08T02:42:07;1.01;80.97
39401;SHT31;75540;50.000;7.360;2024-03-08T02:44:35;0.96;81.25
39401;SHT31;75540;50.000;7.360;2024-03-08T02:47:04;1.00;81.07
39401;SHT31;75540;50.000;7.360;2024-03-08T02:49:33;0.94;81.18
39401;SHT31;75540;50.000;7.360;2024-03-08T02:52:01;0.87;81.39
39401;SHT31;75540;50.000;7.360;2024-03-08T02:54:29;0.88;81.32
39401;SHT31;75540;50.000;7.360;2024-03-08T02:56:59;0.81;81.82
39401;SHT31;75540;50.000;7.360;2024-03-08T02:59:28;0.77;81.85
39401;SHT31;75540;50.000;7.360;2024-03-08T03:01:56;0.77;81.88
39401;SHT31;75540;50.000;7.360;2024-03-08T03:04:24;0.77;81.71
39401;SHT31;75540;50.000;7.360;2024-03-08T03:06:53;0.74;81.85
39401;SHT31;75540;50.000;7.360;2024-03-08T03:09:21;0.70;82.13
39401;SHT31;75540;50.000;7.360;2024-03-08T03:11:55;0.72;82.15
39401;SHT31;75540;50.000;7.360;2024-03-08T03:14:25;0.69;82.26
39401;SHT31;75540;50.000;7.360;2024-03-08T03:16:54;0.63;82.53
39401;SHT31;75540;50.000;7.360;2024-03-08T03:19:22;0.56;82.81
39401;SHT31;75540;50.000;7.360;2024-03-08T03:21:50;0.57;82.74
39401;SHT31;75540;50.000;7.360;2024-03-08T03:24:19;0.54;82.94
39401;SHT31;75540;50.000;7.360;2024-03-08T03:26:48;0.59;82.73
39401;SHT31;75540;50.000;7.360;2024-03-08T03:29:16;0.54;82.94
39401;SHT31;75540;50.000;7.360;2024-03-08T03:31:46;0.57;82.92
39401;SHT31;75540;50.000;7.360;2024-03-08T03:34:14;0.59;82.67
39401;SHT31;75540;50.000;7.360;2024-03-08T03:36:43;0.50;82.88
39401;SHT31;75540;50.000;7.360;2024-03-08T03:39:14;0.43;83.22
39401;SHT31;75540;50.000;7.360;2024-03-08T03:41:44;0.39;83.34
39401;SHT31;75540;50.000;7.360;2024-03-08T03:44:13;0.38;83.35
39401;SHT31;75540;50.000;7.360;2024-03-08T03:46:41;0.38;83.27
39401;SHT31;75540;50.000;7.360;2024-03-08T03:49:13;0.35;83.23
39401;SHT31;75540;50.000;7.360;2024-03-08T03:51:41;0.28;83.53
39401;SHT31;75540;50.000;7.360;2024-03-08T03:54:11;0.25;83.74
39401;SHT31;75540;50.000;7.360;2024-03-08T03:56:39;0.23;83.68
39401;SHT31;75540;50.000;7.360;2024-03-08T03:59:08;0.26;83.56
39401;SHT31;75540;50.000;7.360;2024-03-08T04:01:36;0.19;83.82
39401;SHT31;75540;50.000;7.360;2024-03-08T04:04:05;0.11;84.14
39401;SHT31;75540;50.000;7.360;2024-03-08T04:06:35;0.16;83.96
39401;SHT31;75540;50.000;7.360;2024-03-08T04:09:03;0.12;84.17
39401;SHT31;75540;50.000;7.360;2024-03-08T04:11:32;0.11;84.19
39401;SHT31;75540;50.000;7.360;2024-03-08T04:14:01;0.06;84.35
39401;SHT31;75540;50.000;7.360;2024-03-08T04:16:29;0.02;84.38
39401;SHT31;75540;50.000;7.360;2024-03-08T04:18:58;0.01;84.52
39401;SHT31;75540;50.000;7.360;2024-03-08T04:21:26;-0.02;84.42
39401;SHT31;75540;50.000;7.360;2024-03-08T04:23:56;-0.08;84.65
39401;SHT31;75540;50.000;7.360;2024-03-08T04:26:25;-0.05;84.64
39401;SHT31;75540;50.000;7.360;2024-03-08T04:28:53;-0.05;84.70
39401;SHT31;75540;50.000;7.360;2024-03-08T04:31:22;-0.02;84.54
39401;SHT31;75540;50.000;7.360;2024-03-08T04:33:53;-0.02;84.46
39401;SHT31;75540;50.000;7.360;2024-03-08T04:36:21;-0.10;84.73
39401;SHT31;75540;50.000;7.360;2024-03-08T04:38:51;-0.13;84.75
39401;SHT31;75540;50.000;7.360;2024-03-08T04:41:21;-0.16;84.93
39401;SHT31;75540;50.000;7.360;2024-03-08T04:43:50;-0.18;84.93
39401;SHT31;75540;50.000;7.360;2024-03-08T04:46:18;-0.18;84.97
39401;SHT31;75540;50.000;7.360;2024-03-08T04:48:47;-0.22;85.17
39401;SHT31;75540;50.000;7.360;2024-03-08T04:51:16;-0.29;85.44
39401;SHT31;75540;50.000;7.360;2024-03-08T04:53:46;-0.29;85.55
39401;SHT31;75540;50.000;7.360;2024-03-08T04:56:14;-0.30;85.63
39401;SHT31;75540;50.000;7.360;2024-03-08T04:58:44;-0.34;85.57
39401;SHT31;75540;50.000;7.360;2024-03-08T05:01:13;-0.30;85.46
39401;SHT31;75540;50.000;7.360;2024-03-08T05:03:42;-0.32;85.46
39401;SHT31;75540;50.000;7.360;2024-03-08T05:06:10;-0.32;85.44
39401;SHT31;75540;50.000;7.360;2024-03-08T05:08:39;-0.32;85.37
39401;SHT31;75540;50.000;7.360;2024-03-08T05:11:07;-0.29;85.23
39401;SHT31;75540;50.000;7.360;2024-03-08T05:13:36;-0.29;85.32
39401;SHT31;75540;50.000;7.360;2024-03-08T05:16:06;-0.23;85.15
39401;SHT31;75540;50.000;7.360;2024-03-08T05:18:35;-0.30;85.29
39401;SHT31;75540;50.000;7.360;2024-03-08T05:21:04;-0.26;85.20
39401;SHT31;75540;50.000;7.360;2024-03-08T05:23:32;-0.28;85.28
39401;SHT31;75540;50.000;7.360;2024-03-08T05:26:01;-0.26;85.33
39401;SHT31;75540;50.000;7.360;2024-03-08T05:28:32;-0.28;85.34
39401;SHT31;75540;50.000;7.360;2024-03-08T05:31:00;-0.30;85.44
39401;SHT31;75540;50.000;7.360;2024-03-08T05:33:30;-0.29;85.48
39401;SHT31;75540;50.000;7.360;2024-03-08T05:35:59;-0.26;85.45
39401;SHT31;75540;50.000;7.360;2024-03-08T05:38:27;-0.29;85.54
39401;SHT31;75540;50.000;7.360;2024-03-08T05:40:56;-0.30;85.66
39401;SHT31;75540;50.000;7.360;2024-03-08T05:43:24;-0.32;85.77
39401;SHT31;75540;50.000;7.360;2024-03-08T05:45:52;-0.36;85.94
39401;SHT31;75540;50.000;7.360;2024-03-08T05:48:20;-0.36;86.04
39401;SHT31;75540;50.000;7.360;2024-03-08T05:50:51;-0.37;86.02
39401;SHT31;75540;50.000;7.360;2024-03-08T05:53:19;-0.34;85.98
39401;SHT31;75540;50.000;7.360;2024-03-08T05:55:47;-0.43;86.15
39401;SHT31;75540;50.000;7.360;2024-03-08T05:58:16;-0.44;86.50
39401;SHT31;75540;50.000;7.360;2024-03-08T06:00:44;-0.43;86.45
39401;SHT31;75540;50.000;7.360;2024-03-08T06:03:16;-0.53;86.66
39401;SHT31;75540;50.000;7.360;2024-03-08T06:05:47;-0.49;86.63
39401;SHT31;75540;50.000;7.360;2024-03-08T06:08:17;-0.52;86.72
39401;SHT31;75540;50.000;7.360;2024-03-08T06:10:46;-0.48;86.72
39401;SHT31;75540;50.000;7.360;2024-03-08T06:13:19;-0.46;86.71
39401;SHT31;75540;50.000;7.360;2024-03-08T06:15:47;-0.50;86.81
39401;SHT31;75540;50.000;7.360;2024-03-08T06:18:17;-0.49;86.71
39401;SHT31;75540;50.000;7.360;2024-03-08T06:20:45;-0.52;87.10
39401;SHT31;75540;50.000;7.360;2024-03-08T06:23:13;-0.49;87.15
39401;SHT31;75540;50.000;7.360;2024-03-08T06:25:46;-0.46;86.96
39401;SHT31;75540;50.000;7.360;2024-03-08T06:28:14;-0.40;86.87
39401;SHT31;75540;50.000;7.360;2024-03-08T06:30:44;-0.42;86.83
39401;SHT31;75540;50.000;7.360;2024-03-08T06:33:12;-0.28;86.55
39401;SHT31;75540;50.000;7.360;2024-03-08T06:35:40;-0.19;86.13
39401;SHT31;75540;50.000;7.360;2024-03-08T06:38:09;-0.10;85.94
39401;SHT31;75540;50.000;7.360;2024-03-08T06:40:38;0.12;85.25
39401;SHT31;75540;50.000;7.360;2024-03-08T06:43:08;0.23;84.67
39401;SHT31;75540;50.000;7.360;2024-03-08T06:45:41;0.29;84.38
39401;SHT31;75540;50.000;7.360;2024-03-08T06:48:12;0.26;84.57
39401;SHT31;75540;50.000;7.360;2024-03-08T06:50:40;0.52;83.98
39401;SHT31;75540;50.000;7.360;2024-03-08T06:53:09;0.64;83.17
39401;SHT31;75540;50.000;7.360;2024-03-08T06:55:37;0.59;83.37
39401;SHT31;75540;50.000;7.360;2024-03-08T06:58:05;0.84;82.24
39401;SHT31;75540;50.000;7.360;2024-03-08T07:00:36;0.83;81.63
39401;SHT31;75540;50.000;7.360;2024-03-08T07:03:07;1.07;81.39
39401;SHT31;75540;50.000;7.360;2024-03-08T07:05:39;1.34;80.58
39401;SHT31;75540;50.000;7.360;2024-03-08T07:08:08;1.47;80.18
39401;SHT31;75540;50.000;7.360;2024-03-08T07:10:36;1.58;78.87
39401;SHT31;75540;50.000;7.360;2024-03-08T07:13:05;1.73;79.09
39401;SHT31;75540;50.000;7.360;2024-03-08T07:15:33;1.80;78.51
39401;SHT31;75540;50.000;7.360;2024-03-08T07:18:04;1.73;78.35
39401;SHT31;75540;50.000;7.360;2024-03-08T07:20:32;2.19;77.40
39401;SHT31;75540;50.000;7.360;2024-03-08T07:23:01;1.93;78.13
39401;SHT31;75540;50.000;7.360;2024-03-08T07:25:30;2.05;77.65
39401;SHT31;75540;50.000;7.360;2024-03-08T07:27:58;2.14;76.42
39401;SHT31;75540;50.000;7.360;2024-03-08T07:30:27;2.64;75.75
39401;SHT31;75540;50.000;7.360;2024-03-08T07:33:15;2.70;75.11
39401;SHT31;75540;50.000;7.360;2024-03-08T07:35:43;2.81;75.18
39401;SHT31;75540;50.000;7.360;2024-03-08T07:38:12;2.87;74.01
39401;SHT31;75540;50.000;7.360;2024-03-08T07:40:42;2.62;74.68
39401;SHT31;75540;50.000;7.360;2024-03-08T07:43:12;2.98;74.42
39401;SHT31;75540;50.000;7.360;2024-03-08T07:45:41;2.88;74.52
39401;SHT31;75540;50.000;7.360;2024-03-08T07:48:09;2.47;75.24
39401;SHT31;75540;50.000;7.360;2024-03-08T07:50:40;3.02;74.02
39401;SHT31;75540;50.000;7.360;2024-03-08T07:53:09;3.28;72.70
39401;SHT31;75540;50.000;7.360;2024-03-08T07:55:37;3.52;72.81
39401;SHT31;75540;50.000;7.360;2024-03-08T07:58:07;3.46;71.85
39401;SHT31;75540;50.000;7.360;2024-03-08T08:00:37;3.43;73.09
39401;SHT31;75540;50.000;7.360;2024-03-08T08:03:06;4.01;71.44
39401;SHT31;75540;50.000;7.360;2024-03-08T08:05:35;3.98;70.47
39401;SHT31;75540;50.000;7.360;2024-03-08T08:08:07;3.91;70.49
39401;SHT31;75540;50.000;7.360;2024-03-08T08:10:38;3.58;71.17
39401;SHT31;75540;50.000;7.360;2024-03-08T08:13:07;3.46;72.21
39401;SHT31;75540;50.000;7.360;2024-03-08T08:15:35;3.80;72.25
39401;SHT31;75540;50.000;7.360;2024-03-08T08:18:04;3.58;71.96
39401;SHT31;75540;50.000;7.360;2024-03-08T08:20:34;3.62;72.02
39401;SHT31;75540;50.000;7.360;2024-03-08T08:23:02;3.01;73.36
39401;SHT31;75540;50.000;7.360;2024-03-08T08:25:32;3.73;71.50
39401;SHT31;75540;50.000;7.360;2024-03-08T08:28:02;3.58;72.49
39401;SHT31;75540;50.000;7.360;2024-03-08T08:30:31;3.86;71.04
39401;SHT31;75540;50.000;7.360;2024-03-08T08:33:00;4.12;70.79
39401;SHT31;75540;50.000;7.360;2024-03-08T08:35:29;4.42;70.65
39401;SHT31;75540;50.000;7.360;2024-03-08T08:37:58;4.93;68.32
39401;SHT31;75540;50.000;7.360;2024-03-08T08:40:26;5.00;67.28
39401;SHT31;75540;50.000;7.360;2024-03-08T08:42:57;4.72;67.91
39401;SHT31;75540;50.000;7.360;2024-03-08T08:45:26;4.56;69.16
39401;SHT31;75540;50.000;7.360;2024-03-08T08:47:55;4.35;69.49
39401;SHT31;75540;50.000;7.360;2024-03-08T08:50:23;4.89;68.29
39401;SHT31;75540;50.000;7.360;2024-03-08T08:52:52;4.03;71.27
39401;SHT31;75540;50.000;7.360;2024-03-08T08:55:21;4.15;70.91
39401;SHT31;75540;50.000;7.360;2024-03-08T08:57:53;4.52;69.84
39401;SHT31;75540;50.000;7.360;2024-03-08T09:00:24;4.10;70.25
39401;SHT31;75540;50.000;7.360;2024-03-08T09:02:55;4.65;69.47
39401;SHT31;75540;50.000;7.360;2024-03-08T09:05:25;4.35;70.06
39401;SHT31;75540;50.000;7.360;2024-03-08T09:07:54;4.41;69.46
39401;SHT31;75540;50.000;7.360;2024-03-08T09:10:23;4.37;68.88
39401;SHT31;75540;50.000;7.360;2024-03-08T09:12:54;5.34;67.54
39401;SHT31;75540;50.000;7.360;2024-03-08T09:15:23;4.48;67.96
39401;SHT31;75540;50.000;7.360;2024-03-08T09:17:58;5.52;67.42
39401;SHT31;75540;50.000;7.360;2024-03-08T09:20:27;5.70;65.93
39401;SHT31;75540;50.000;7.360;2024-03-08T09:22:56;6.12;64.67
39401;SHT31;75540;50.000;7.360;2024-03-08T09:25:24;5.23;66.90
39401;SHT31;75540;50.000;7.360;2024-03-08T09:27:53;5.64;66.47
39401;SHT31;75540;50.000;7.360;2024-03-08T09:30:21;5.34;66.20
39401;SHT31;75540;50.000;7.360;2024-03-08T09:32:50;5.88;65.80
39401;SHT31;75540;50.000;7.360;2024-03-08T09:35:22;5.88;65.31
39401;SHT31;75540;50.000;7.360;2024-03-08T09:37:50;5.84;64.79
39401;SHT31;75540;50.000;7.360;2024-03-08T09:40:20;5.52;65.66
39401;SHT31;75540;50.000;7.360;2024-03-08T09:42:51;6.13;64.65
39401;SHT31;75540;50.000;7.360;2024-03-08T09:45:20;6.21;63.83
39401;SHT31;75540;50.000;7.360;2024-03-08T09:47:51;6.21;63.65
39401;SHT31;75540;50.000;7.360;2024-03-08T09:50:21;6.33;63.20
39401;SHT31;75540;50.000;7.360;2024-03-08T09:52:50;6.90;62.08
39401;SHT31;75540;50.000;7.360;2024-03-08T09:55:18;7.24;60.88
39401;SHT31;75540;50.000;7.360;2024-03-08T09:57:51;7.36;60.88
39401;SHT31;75540;50.000;7.360;2024-03-08T10:00:36;7.27;59.60
39401;SHT31;75540;50.000;7.360;2024-03-08T10:03:04;7.17;61.28
39401;SHT31;75540;50.000;7.360;2024-03-08T10:05:34;6.91;61.32
39401;SHT31;75540;50.000;7.360;2024-03-08T10:08:03;6.90;61.98
39401;SHT31;75540;50.000;7.360;2024-03-08T10:10:33;6.87;60.87
39401;SHT31;75540;50.000;7.360;2024-03-08T10:13:02;7.18;60.69
39401;SHT31;75540;50.000;7.360;2024-03-08T10:15:31;7.31;61.24
39401;SHT31;75540;50.000;7.360;2024-03-08T10:18:00;7.34;60.81
39401;SHT31;75540;50.000;7.360;2024-03-08T10:20:30;6.90;61.14
39401;SHT31;75540;50.000;7.360;2024-03-08T10:23:01;6.58;62.80
39401;SHT31;75540;50.000;7.360;2024-03-08T10:25:37;6.50;62.30
39401;SHT31;75540;50.000;7.360;2024-03-08T10:28:06;7.31;61.28
39401;SHT31;75540;50.000;7.360;2024-03-08T10:30:35;7.48;60.06
39401;SHT31;75540;50.000;7.360;2024-03-08T10:33:03;7.96;59.51
39401;SHT31;75540;50.000;7.360;2024-03-08T10:35:32;7.97;58.67
39401;SHT31;75540;50.000;7.360;2024-03-08T10:38:04;7.69;60.37
39401;SHT31;75540;50.000;7.360;2024-03-08T10:40:35;7.86;59.18
39401;SHT31;75540;50.000;7.360;2024-03-08T10:43:17;8.36;57.43
39401;SHT31;75540;50.000;7.360;2024-03-08T10:45:47;8.27;58.05
39401;SHT31;75540;50.000;7.360;2024-03-08T10:48:27;8.50;57.51
39401;SHT31;75540;50.000;7.360;2024-03-08T10:51:05;7.97;58.58
39401;SHT31;75540;50.000;7.360;2024-03-08T10:53:36;8.14;58.51
39401;SHT31;75540;50.000;7.360;2024-03-08T10:56:08;8.37;58.29
39401;SHT31;75540;50.000;7.360;2024-03-08T10:58:37;8.40;57.65
39401;SHT31;75540;50.000;7.360;2024-03-08T11:01:07;8.89;56.36
39401;SHT31;75540;50.000;7.360;2024-03-08T11:03:44;8.72;56.94
39401;SHT31;75540;50.000;7.360;2024-03-08T11:06:17;8.23;55.66
39401;SHT31;75540;50.000;7.360;2024-03-08T11:08:51;8.68;57.57
39401;SHT31;75540;50.000;7.360;2024-03-08T11:11:26;8.72;57.00
39401;SHT31;75540;50.000;7.360;2024-03-08T11:14:01;7.96;57.85
39401;SHT31;75540;50.000;7.360;2024-03-08T11:16:39;7.52;59.15
39401;SHT31;75540;50.000;7.360;2024-03-08T11:19:24;7.72;60.14
39401;SHT31;75540;50.000;7.360;2024-03-08T11:22:00;7.38;60.00
39401;SHT31;75540;50.000;7.360;2024-03-08T11:24:36;7.54;59.43
39401;SHT31;75540;50.000;7.360;2024-03-08T11:27:07;7.25;60.58
39401;SHT31;75540;50.000;7.360;2024-03-08T11:29:37;7.19;60.77
39401;SHT31;75540;50.000;7.360;2024-03-08T11:32:08;7.44;60.88
39401;SHT31;75540;50.000;7.360;2024-03-08T11:34:37;7.38;59.84
39401;SHT31;75540;50.000;7.360;2024-03-08T11:37:06;7.81;61.20
39401;SHT31;75540;50.000;7.360;2024-03-08T11:39:46;8.19;59.40
39401;SHT31;75540;50.000;7.360;2024-03-08T11:42:15;8.09;58.65
39401;SHT31;75540;50.000;7.360;2024-03-08T11:44:44;7.69;59.75
39401;SHT31;75540;50.000;7.360;2024-03-08T11:47:13;7.56;59.46
39401;SHT31;75540;50.000;7.360;2024-03-08T11:49:41;8.19;58.75
39401;SHT31;75540;50.000;7.360;2024-03-08T11:52:11;7.76;60.21
39401;SHT31;75540;50.000;7.360;2024-03-08T11:54:47;7.00;62.01
39401;SHT31;75540;50.000;7.360;2024-03-08T11:57:17;6.93;62.15
39401;SHT31;75540;50.000;7.360;2024-03-08T11:59:49;6.98;62.73
39401;SHT31;75540;50.000;7.360;2024-03-08T12:02:22;6.96;62.58
39401;SHT31;75540;50.000;7.360;2024-03-08T12:04:56;6.36;63.27
39401;SHT31;75540;50.000;7.360;2024-03-08T12:07:24;7.17;63.10
39401;SHT31;75540;50.000;7.360;2024-03-08T12:10:17;7.66;60.17
39401;SHT31;75540;50.000;7.360;2024-03-08T12:12:51;7.51;61.19
39401;SHT31;75540;50.000;7.360;2024-03-08T12:15:20;7.55;61.48
39401;SHT31;75540;50.000;7.360;2024-03-08T12:17:50;7.54;61.97
39401;SHT31;75540;50.000;7.360;2024-03-08T12:20:21;7.68;61.00
39401;SHT31;75540;50.000;7.360;2024-03-08T12:22:50;8.14;59.28
39401;SHT31;75540;50.000;7.360;2024-03-08T12:25:21;8.02;58.92
39401;SHT31;75540;50.000;7.360;2024-03-08T12:27:50;8.33;60.08
39401;SHT31;75540;50.000;7.360;2024-03-08T12:30:21;7.72;60.65
39401;SHT31;75540;50.000;7.360;2024-03-08T12:32:52;8.33;59.36
39401;SHT31;75540;50.000;7.360;2024-03-08T12:35:21;7.51;61.10
39401;SHT31;75540;50.000;7.360;2024-03-08T12:37:51;7.69;60.58
39401;SHT31;75540;50.000;7.360;2024-03-08T12:40:27;7.72;59.72
39401;SHT31;75540;50.000;7.360;2024-03-08T12:42:56;7.52;61.23
39401;SHT31;75540;50.000;7.360;2024-03-08T12:45:24;7.42;62.40
39401;SHT31;75540;50.000;7.360;2024-03-08T12:47:54;7.63;61.67
39401;SHT31;75540;50.000;7.360;2024-03-08T12:50:23;7.59;61.33
39401;SHT31;75540;50.000;7.360;2024-03-08T12:52:53;7.59;61.32
39401;SHT31;75540;50.000;7.360;2024-03-08T12:55:22;7.73;62.29
39401;SHT31;75540;50.000;7.360;2024-03-08T12:57:52;7.71;61.78
39401;SHT31;75540;50.000;7.360;2024-03-08T13:00:21;7.71;60.64
39401;SHT31;75540;50.000;7.360;2024-03-08T13:02:50;7.79;62.01
39401;SHT31;75540;50.000;7.360;2024-03-08T13:05:19;7.47;60.82
39401;SHT31;75540;50.000;7.360;2024-03-08T13:07:47;7.45;61.33
39401;SHT31;75540;50.000;7.360;2024-03-08T13:10:16;7.47;61.90
39401;SHT31;75540;50.000;7.360;2024-03-08T13:12:48;7.32;62.19
39401;SHT31;75540;50.000;7.360;2024-03-08T13:15:21;7.59;63.38
39401;SHT31;75540;50.000;7.360;2024-03-08T13:17:50;7.45;61.71
39401;SHT31;75540;50.000;7.360;2024-03-08T13:20:19;7.59;61.94
39401;SHT31;75540;50.000;7.360;2024-03-08T13:22:59;7.62;60.43
39401;SHT31;75540;50.000;7.360;2024-03-08T13:25:29;7.66;61.30
39401;SHT31;75540;50.000;7.360;2024-03-08T13:27:57;8.07;62.03
39401;SHT31;75540;50.000;7.360;2024-03-08T13:30:29;7.66;60.31
39401;SHT31;75540;50.000;7.360;2024-03-08T13:32:58;7.71;60.54
39401;SHT31;75540;50.000;7.360;2024-03-08T13:35:26;7.49;60.53
39401;SHT31;75540;50.000;7.360;2024-03-08T13:37:57;7.44;60.99
39401;SHT31;75540;50.000;7.360;2024-03-08T13:40:26;7.36;61.61
39401;SHT31;75540;50.000;7.360;2024-03-08T13:42:54;7.51;61.72
39401;SHT31;75540;50.000;7.360;2024-03-08T13:45:23;7.65;61.79
39401;SHT31;75540;50.000;7.360;2024-03-08T13:47:53;7.45;60.90
39401;SHT31;75540;50.000;7.360;2024-03-08T13:50:21;7.39;61.69
39401;SHT31;75540;50.000;7.360;2024-03-08T13:52:51;7.54;61.04
39401;SHT31;75540;50.000;7.360;2024-03-08T13:55:23;7.34;61.38
39401;SHT31;75540;50.000;7.360;2024-03-08T13:57:54;7.36;61.69
39401;SHT31;75540;50.000;7.360;2024-03-08T14:00:24;7.58;62.27
39401;SHT31;75540;50.000;7.360;2024-03-08T14:02:56;7.59;61.43
39401;SHT31;75540;50.000;7.360;2024-03-08T14:05:25;7.47;61.45
39401;SHT31;75540;50.000;7.360;2024-03-08T14:07:54;7.51;61.57
39401;SHT31;75540;50.000;7.360;2024-03-08T14:10:22;7.52;61.66
39401;SHT31;75540;50.000;7.360;2024-03-08T14:12:51;7.47;61.65
39401;SHT31;75540;50.000;7.360;2024-03-08T14:15:19;7.51;62.40
39401;SHT31;75540;50.000;7.360;2024-03-08T14:17:53;7.68;61.60
39401;SHT31;75540;50.000;7.360;2024-03-08T14:20:23;7.52;62.62
39401;SHT31;75540;50.000;7.360;2024-03-08T14:22:53;7.65;62.15
39401;SHT31;75540;50.000;7.360;2024-03-08T14:25:22;7.62;62.28
39401;SHT31;75540;50.000;7.360;2024-03-08T14:27:52;7.56;61.11
39401;SHT31;75540;50.000;7.360;2024-03-08T14:30:25;7.61;60.97
39401;SHT31;75540;50.000;7.360;2024-03-08T14:33:05;7.36;61.44
39401;SHT31;75540;50.000;7.360;2024-03-08T14:35:38;7.39;60.98
39401;SHT31;75540;50.000;7.360;2024-03-08T14:38:06;7.25;61.26
39401;SHT31;75540;50.000;7.360;2024-03-08T14:40:36;7.28;61.42
39401;SHT31;75540;50.000;7.360;2024-03-08T14:43:05;7.32;62.28
39401;SHT31;75540;50.000;7.360;2024-03-08T14:45:33;7.19;61.77
39401;SHT31;75540;50.000;7.360;2024-03-08T14:48:02;7.19;61.95
39401;SHT31;75540;50.000;7.360;2024-03-08T14:50:31;7.32;62.48
39401;SHT31;75540;50.000;7.360;2024-03-08T14:53:02;7.49;63.33
39401;SHT31;75540;50.000;7.360;2024-03-08T14:55:34;7.59;62.23
39401;SHT31;75540;50.000;7.360;2024-03-08T14:58:02;7.58;61.55
39401;SHT31;75540;50.000;7.360;2024-03-08T15:00:31;7.54;61.75
39401;SHT31;75540;50.000;7.360;2024-03-08T15:03:02;7.21;61.73
39401;SHT31;75540;50.000;7.360;2024-03-08T15:05:33;7.12;62.03
39401;SHT31;75540;50.000;7.360;2024-03-08T15:08:07;6.98;62.83
39401;SHT31;75540;50.000;7.360;2024-03-08T15:10:39;7.22;62.88
39401;SHT31;75540;50.000;7.360;2024-03-08T15:13:09;7.22;63.81
39401;SHT31;75540;50.000;7.360;2024-03-08T15:15:49;7.36;63.43
39401;SHT31;75540;50.000;7.360;2024-03-08T15:18:23;7.21;62.80
39401;SHT31;75540;50.000;7.360;2024-03-08T15:20:58;7.36;62.19
39401;SHT31;75540;50.000;7.360;2024-03-08T15:23:28;7.28;63.03
39401;SHT31;75540;50.000;7.360;2024-03-08T15:25:56;7.29;63.46
39401;SHT31;75540;50.000;7.360;2024-03-08T15:28:25;7.22;62.20
39401;SHT31;75540;50.000;7.360;2024-03-08T15:31:01;7.09;62.41
39401;SHT31;75540;50.000;7.360;2024-03-08T15:33:33;7.11;62.93
39401;SHT31;75540;50.000;7.360;2024-03-08T15:36:01;7.09;63.13
39401;SHT31;75540;50.000;7.360;2024-03-08T15:38:36;7.01;62.67
39401;SHT31;75540;50.000;7.360;2024-03-08T15:41:05;7.00;63.36
39401;SHT31;75540;50.000;7.360;2024-03-08T15:43:36;6.90;63.47
39401;SHT31;75540;50.000;7.360;2024-03-08T15:46:07;6.88;63.30
39401;SHT31;75540;50.000;7.360;2024-03-08T15:48:36;6.87;63.27
39401;SHT31;75540;50.000;7.360;2024-03-08T15:51:05;6.81;63.77
39401;SHT31;75540;50.000;7.360;2024-03-08T15:53:34;6.81;64.14
39401;SHT31;75540;50.000;7.360;2024-03-08T15:56:05;6.81;64.19
39401;SHT31;75540;50.000;7.360;2024-03-08T15:58:36;6.72;64.37
39401;SHT31;75540;50.000;7.360;2024-03-08T16:01:05;6.84;65.12